Time;durP1;ratioP1;P1;durP2;ratioP2;P2;SDS_P1;SDS_P2;PMS_P1;PMS_P2;Temp;Humidity;BMP_temperature;BMP_pressure;BME280_temperature;BME280_humidity;BME280_pressure;Samples;Min_cycle;Max_cycle;Signal;HPM_P1;HPM_P2
2022/08/08 00:02:40;;;;;;;0.47;0.47;;;14.60;99.90;;;;;;5036728;28;20310;-92
2022/08/08 00:05:18;;;;;;;0.85;0.77;;;14.20;99.90;;;;;;5020810;28;20195;-93
2022/08/08 00:07:52;;;;;;;0.57;0.55;;;14.20;99.90;;;;;;5036856;28;20184;-92
2022/08/08 00:11:07;;;;;;;0.70;0.70;;;14.20;99.90;;;;;;5054360;28;20308;-92
2022/08/08 00:13:41;;;;;;;0.80;0.80;;;14.20;99.90;;;;;;4995760;28;20177;-92
2022/08/08 00:16:11;;;;;;;0.80;0.80;;;13.90;99.90;;;;;;5012387;28;20213;-93
2022/08/08 00:18:48;;;;;;;1.15;0.60;;;13.90;99.90;;;;;;5038637;28;20188;-92
2022/08/08 00:21:21;;;;;;;0.55;0.50;;;14.00;99.90;;;;;;5036697;28;20243;-93
2022/08/08 00:23:56;;;;;;;0.60;0.60;;;13.70;99.90;;;;;;5036457;28;20224;-92
2022/08/08 00:26:25;;;;;;;0.70;0.70;;;14.00;99.90;;;;;;5036158;28;20179;-91
2022/08/08 00:28:56;;;;;;;0.70;0.70;;;14.00;99.90;;;;;;5035824;28;20179;-92
2022/08/08 00:31:28;;;;;;;0.45;0.45;;;14.10;99.90;;;;;;5053965;28;20168;-91
2022/08/08 00:37:09;;;;;;;1.20;0.93;;;13.80;99.90;;;;;;5053593;28;20179;-92
2022/08/08 00:39:49;;;;;;;0.73;0.70;;;13.50;99.90;;;;;;5053883;28;20629;-92
2022/08/08 00:43:10;;;;;;;0.70;0.70;;;13.80;99.90;;;;;;5054197;28;20613;-92
2022/08/08 00:46:03;;;;;;;0.70;0.70;;;14.00;99.90;;;;;;5036014;28;20176;-92
2022/08/08 00:48:40;;;;;;;2.30;0.70;;;13.40;99.90;;;;;;5036200;28;20529;-92
2022/08/08 00:51:27;;;;;;;0.60;0.60;;;13.70;99.90;;;;;;5053652;28;20164;-92
2022/08/08 00:54:37;;;;;;;0.65;0.63;;;13.60;99.90;;;;;;5035784;28;20175;-91
2022/08/08 00:57:20;;;;;;;1.58;0.82;;;13.60;99.90;;;;;;5053736;28;20196;-91
2022/08/08 01:00:16;;;;;;;0.60;0.60;;;13.60;99.90;;;;;;5053410;28;20177;-91
2022/08/08 01:03:06;;;;;;;1.52;0.98;;;13.50;99.90;;;;;;5035880;28;20196;-91
2022/08/08 01:05:50;;;;;;;0.82;0.63;;;13.50;99.90;;;;;;5035739;28;20190;-91
2022/08/08 01:08:31;;;;;;;5.93;1.23;;;13.50;99.90;;;;;;5035850;28;20255;-93
2022/08/08 01:11:15;;;;;;;0.90;0.80;;;13.50;99.90;;;;;;5035960;28;20266;-91
2022/08/08 01:13:53;;;;;;;0.57;0.40;;;13.30;99.90;;;;;;5053266;28;20179;-92
2022/08/08 01:16:46;;;;;;;0.45;0.45;;;13.50;99.90;;;;;;5053774;28;20226;-93
2022/08/08 01:19:12;;;;;;;0.90;0.90;;;13.40;99.90;;;;;;5053748;28;20664;-93
2022/08/08 01:22:09;;;;;;;0.50;0.50;;;13.30;99.90;;;;;;5053501;28;20203;-93
2022/08/08 01:24:54;;;;;;;1.45;0.88;;;13.40;99.90;;;;;;5035534;28;20554;-92
2022/08/08 01:27:44;;;;;;;0.47;0.47;;;13.30;99.90;;;;;;5035640;28;20684;-93
2022/08/08 01:30:41;;;;;;;1.13;1.02;;;13.30;99.90;;;;;;5035670;28;20273;-92
2022/08/08 01:33:44;;;;;;;0.63;0.63;;;13.30;99.90;;;;;;5053333;28;20183;-92
2022/08/08 01:36:24;;;;;;;1.00;0.70;;;13.30;99.90;;;;;;5053593;28;20203;-92
2022/08/08 01:39:20;;;;;;;0.80;0.80;;;13.10;99.90;;;;;;5035411;28;20235;-93
2022/08/08 01:42:10;;;;;;;1.08;0.73;;;13.20;99.90;;;;;;5053419;28;20164;-93
2022/08/08 01:44:52;;;;;;;0.70;0.57;;;13.00;99.90;;;;;;5053423;28;20160;-93
2022/08/08 01:47:30;;;;;;;2.60;0.80;;;13.20;99.90;;;;;;5035713;28;20208;-93
2022/08/08 01:50:15;;;;;;;0.50;0.50;;;13.30;99.90;;;;;;5053105;28;20168;-93
2022/08/08 01:52:50;;;;;;;0.68;0.68;;;13.30;99.90;;;;;;5035444;28;20266;-93
2022/08/08 01:55:27;;;;;;;0.52;0.52;;;13.20;99.90;;;;;;5035797;28;20270;-92
2022/08/08 01:58:05;;;;;;;0.63;0.63;;;13.20;99.90;;;;;;5035595;28;20202;-92
2022/08/08 02:00:59;;;;;;;1.05;0.73;;;13.20;99.90;;;;;;5035327;28;20202;-92
2022/08/08 02:03:49;;;;;;;0.68;0.68;;;13.20;99.90;;;;;;5054988;28;20491;-92
2022/08/08 02:06:31;;;;;;;0.75;0.75;;;13.20;99.90;;;;;;5038832;28;20176;-92
2022/08/08 02:09:10;;;;;;;0.80;0.80;;;12.60;99.90;;;;;;5038845;28;20183;-91
2022/08/08 02:11:40;;;;;;;1.48;0.90;;;13.10;99.90;;;;;;5038743;28;20172;-92
2022/08/08 02:14:13;;;;;;;0.82;0.80;;;13.10;99.90;;;;;;5038726;28;20175;-92
2022/08/08 02:17:04;;;;;;;0.93;0.80;;;13.10;99.90;;;;;;5038820;28;20215;-92
2022/08/08 02:19:44;;;;;;;0.68;0.68;;;13.10;99.90;;;;;;5056459;28;20180;-91
2022/08/08 02:25:28;;;;;;;0.73;0.73;;;13.20;99.90;;;;;;5042836;28;20188;-92
2022/08/08 02:28:02;;;;;;;0.85;0.82;;;13.00;99.90;;;;;;5056349;28;20163;-92
2022/08/08 02:30:34;;;;;;;1.52;0.95;;;13.00;99.90;;;;;;5038825;28;20206;-92
2022/08/08 02:33:38;;;;;;;1.88;0.90;;;13.40;99.90;;;;;;5038427;28;20190;-91
2022/08/08 02:36:30;;;;;;;0.63;0.60;;;13.00;99.90;;;;;;5038158;28;20282;-92
2022/08/08 02:39:24;;;;;;;0.95;0.95;;;13.30;99.90;;;;;;5038095;28;20277;-93
2022/08/08 02:42:17;;;;;;;0.70;0.70;;;12.80;99.90;;;;;;5020742;28;20219;-91
2022/08/08 02:45:13;;;;;;;0.43;0.43;;;12.90;99.90;;;;;;5056066;28;20172;-92
2022/08/08 02:47:54;;;;;;;2.50;1.45;;;13.30;99.90;;;;;;5056237;28;20247;-92
2022/08/08 02:50:51;;;;;;;0.50;0.50;;;13.00;99.90;;;;;;5056302;28;20605;-91
2022/08/08 02:53:38;;;;;;;0.55;0.55;;;13.00;99.90;;;;;;5029874;28;20184;-91
2022/08/08 02:56:38;;;;;;;0.50;0.45;;;13.00;99.90;;;;;;5037821;28;20219;-91
2022/08/08 02:59:28;;;;;;;1.77;0.77;;;13.00;99.90;;;;;;5055854;28;20183;-90
2022/08/08 03:02:18;;;;;;;0.80;0.80;;;12.90;99.90;;;;;;5038326;28;20188;-91
2022/08/08 03:05:02;;;;;;;0.70;0.70;;;12.90;99.90;;;;;;5038133;28;20168;-91
2022/08/08 03:07:43;;;;;;;0.60;0.60;;;12.90;99.90;;;;;;5039331;28;20230;-91
2022/08/08 03:10:40;;;;;;;1.42;0.90;;;13.10;99.90;;;;;;5037901;28;20183;-90
2022/08/08 03:13:52;;;;;;;1.50;1.23;;;13.00;99.90;;;;;;5039055;28;20238;-91
2022/08/08 03:16:42;;;;;;;0.57;0.57;;;13.00;99.90;;;;;;5014374;28;20231;-91
2022/08/08 03:19:26;;;;;;;0.77;0.77;;;13.30;99.90;;;;;;5038071;28;20206;-90
2022/08/08 03:21:51;;;;;;;1.52;1.35;;;12.80;99.90;;;;;;5037248;28;20180;-89
2022/08/08 03:24:18;;;;;;;0.57;0.57;;;13.20;99.90;;;;;;5055950;28;20190;-92
2022/08/08 03:26:51;;;;;;;2.70;1.00;;;13.10;99.90;;;;;;5079574;28;20176;-89
2022/08/08 03:29:20;;;;;;;0.52;0.52;;;13.00;99.90;;;;;;5062549;28;20163;-88
2022/08/08 03:34:34;;;;;;;1.85;0.80;;;13.50;99.90;;;;;;5079303;28;20238;-89
2022/08/08 03:37:00;;;;;;;0.93;0.80;;;13.80;99.90;;;;;;5061472;28;20328;-88
2022/08/08 03:39:26;;;;;;;0.60;0.60;;;;;;;;;;5079246;28;20208;-89
2022/08/08 03:41:52;;;;;;;0.77;0.77;;;;;;;;;;5061663;28;20168;-87
2022/08/08 03:44:18;;;;;;;0.73;0.63;;;13.40;99.90;;;;;;5078349;28;20186;-88
2022/08/08 03:46:48;;;;;;;0.50;0.50;;;13.20;99.90;;;;;;5044290;28;20164;-88
2022/08/08 03:49:25;;;;;;;1.35;1.00;;;13.40;99.90;;;;;;5060724;28;20153;-88
2022/08/08 03:51:55;;;;;;;1.10;0.88;;;13.60;99.90;;;;;;5061329;28;20186;-91
2022/08/08 03:54:22;;;;;;;1.05;0.93;;;13.70;99.90;;;;;;5061489;28;20172;-88
2022/08/08 03:56:51;;;;;;;1.65;1.23;;;13.60;99.90;;;;;;5056038;28;20230;-88
2022/08/08 03:59:17;;;;;;;1.70;1.58;;;13.90;99.90;;;;;;5054989;28;20172;-88
2022/08/08 04:01:43;;;;;;;0.93;0.88;;;;;;;;;;5037885;28;20187;-88
2022/08/08 04:04:09;;;;;;;0.77;0.75;;;13.90;99.90;;;;;;5054807;28;20207;-88
2022/08/08 04:06:35;;;;;;;1.48;1.20;;;14.20;99.90;;;;;;5055456;28;20203;-88
2022/08/08 04:09:03;;;;;;;0.82;0.77;;;13.90;99.90;;;;;;5055441;28;20191;-89
2022/08/08 04:11:30;;;;;;;0.60;0.55;;;13.90;99.90;;;;;;5054464;28;20190;-89
2022/08/08 04:13:56;;;;;;;1.30;0.90;;;13.90;99.90;;;;;;5054895;28;20590;-88
2022/08/08 04:16:22;;;;;;;1.48;0.98;;;14.20;99.90;;;;;;5028341;28;20214;-88
2022/08/08 04:18:48;;;;;;;1.92;1.55;;;13.70;99.90;;;;;;5049676;28;20172;-88
2022/08/08 04:21:14;;;;;;;2.05;1.42;;;14.00;99.90;;;;;;5043713;28;20566;-88
2022/08/08 04:23:43;;;;;;;1.02;0.93;;;14.10;99.90;;;;;;5037556;28;20180;-87
2022/08/08 04:26:09;;;;;;;3.30;1.25;;;14.50;99.90;;;;;;5036506;28;20637;-89
2022/08/08 04:28:35;;;;;;;0.75;0.75;;;;;;;;;;5036724;28;20180;-89
2022/08/08 04:31:01;;;;;;;1.88;1.15;;;14.20;99.90;;;;;;5035654;28;20176;-89
2022/08/08 04:33:26;;;;;;;1.63;1.50;;;14.30;99.90;;;;;;5036087;28;20226;-88
2022/08/08 04:35:52;;;;;;;1.02;1.00;;;;;;;;;;5035705;28;20695;-89
2022/08/08 04:38:18;;;;;;;1.08;0.90;;;14.40;99.90;;;;;;5053080;28;20269;-88
2022/08/08 04:40:44;;;;;;;1.08;0.82;;;14.60;99.90;;;;;;5053731;28;20176;-88
2022/08/08 04:43:10;;;;;;;0.93;0.70;;;;;;;;;;5020367;28;20276;-89
2022/08/08 04:45:36;;;;;;;0.88;0.88;;;14.50;99.90;;;;;;5038761;28;20186;-89
2022/08/08 04:48:02;;;;;;;1.02;1.02;;;14.60;99.90;;;;;;5057110;28;20621;-90
2022/08/08 04:50:28;;;;;;;0.80;0.80;;;;;;;;;;5039489;28;20190;-89
2022/08/08 04:52:54;;;;;;;1.17;1.05;;;14.70;99.90;;;;;;5036972;28;20180;-89
2022/08/08 04:55:20;;;;;;;0.55;0.55;;;14.70;99.90;;;;;;5035440;28;20204;-90
2022/08/08 04:57:48;;;;;;;1.08;0.80;;;;;;;;;;5036345;28;20222;-90
2022/08/08 05:00:14;;;;;;;1.00;0.95;;;14.90;99.90;;;;;;5042892;28;20632;-90
2022/08/08 05:02:40;;;;;;;1.42;1.00;;;;;;;;;;5057950;28;20180;-89
2022/08/08 05:05:06;;;;;;;0.60;0.60;;;15.30;99.90;;;;;;5057721;28;20186;-90
2022/08/08 05:07:32;;;;;;;0.95;0.70;;;15.00;99.90;;;;;;5020513;28;20542;-90
2022/08/08 05:09:58;;;;;;;1.08;0.82;;;;;;;;;;5035184;28;20540;-90
2022/08/08 05:12:23;;;;;;;1.80;1.63;;;15.30;99.90;;;;;;5017956;28;20180;-89
2022/08/08 05:14:50;;;;;;;2.33;0.75;;;15.30;99.90;;;;;;5017494;28;20203;-89
2022/08/08 05:17:16;;;;;;;1.55;1.05;;;15.30;99.90;;;;;;5051675;28;20309;-90
2022/08/08 05:19:42;;;;;;;1.17;0.90;;;;;;;;;;5034044;28;20260;-89
2022/08/08 05:22:08;;;;;;;0.63;0.63;;;15.40;99.90;;;;;;5035245;28;20190;-91
2022/08/08 05:24:35;;;;;;;12.98;1.52;;;15.20;99.90;;;;;;5002852;28;20176;-90
2022/08/08 05:27:01;;;;;;;0.70;0.70;;;15.40;99.90;;;;;;5035038;28;20191;-89
2022/08/08 05:29:27;;;;;;;1.02;0.95;;;15.30;99.90;;;;;;5046092;28;20184;-89
2022/08/08 05:31:53;;;;;;;0.73;0.73;;;;;;;;;;5022655;28;20573;-91
2022/08/08 05:34:34;;;;;;;1.83;0.95;;;15.10;99.90;;;;;;5025296;28;20176;-89
2022/08/08 05:37:03;;;;;;;0.80;0.80;;;15.60;99.90;;;;;;5042773;28;20254;-89
2022/08/08 05:39:29;;;;;;;0.82;0.70;;;16.00;99.90;;;;;;5044772;28;20167;-89
2022/08/08 05:41:57;;;;;;;2.17;1.00;;;15.70;99.90;;;;;;5025739;28;20181;-89
2022/08/08 05:44:28;;;;;;;1.05;0.95;;;16.00;99.90;;;;;;5028850;28;20696;-90
2022/08/08 05:46:56;;;;;;;1.98;0.88;;;15.40;99.90;;;;;;5056097;28;20175;-89
2022/08/08 05:49:21;;;;;;;0.55;0.55;;;15.90;99.90;;;;;;5036843;28;20221;-89
2022/08/08 05:51:48;;;;;;;0.70;0.60;;;16.10;99.90;;;;;;5009820;28;20595;-90
2022/08/08 05:54:14;;;;;;;0.68;0.68;;;16.20;99.90;;;;;;5027822;28;20219;-89
2022/08/08 05:56:43;;;;;;;0.75;0.75;;;16.30;99.90;;;;;;5042083;28;20295;-90
2022/08/08 05:59:20;;;;;;;4.50;1.05;;;16.40;99.90;;;;;;5029157;28;20184;-89
2022/08/08 06:01:57;;;;;;;2.88;1.10;;;16.30;99.90;;;;;;5018399;28;20188;-88
2022/08/08 06:04:28;;;;;;;3.85;2.03;;;16.50;99.90;;;;;;5040877;28;20168;-89
2022/08/08 06:06:58;;;;;;;0.90;0.90;;;16.70;99.90;;;;;;5044061;28;20169;-89
2022/08/08 06:09:33;;;;;;;0.80;0.80;;;16.80;99.90;;;;;;5049131;28;20645;-89
2022/08/08 06:12:03;;;;;;;1.27;1.17;;;17.10;99.90;;;;;;5037219;28;20553;-90
2022/08/08 06:14:29;;;;;;;1.00;0.80;;;17.40;99.90;;;;;;5037214;28;20172;-90
2022/08/08 06:16:59;;;;;;;1.83;1.02;;;17.50;99.90;;;;;;5051415;28;20184;-89
2022/08/08 06:19:25;;;;;;;2.90;0.75;;;;;;;;;;5012795;28;20168;-90
2022/08/08 06:21:52;;;;;;;1.08;1.00;;;17.70;99.90;;;;;;5043712;28;20192;-89
2022/08/08 06:24:18;;;;;;;0.65;0.65;;;17.80;99.90;;;;;;5029175;28;20187;-89
2022/08/08 06:26:55;;;;;;;1.75;1.50;;;18.00;99.90;;;;;;5031171;28;20188;-89
2022/08/08 06:29:31;;;;;;;2.67;1.80;;;18.10;99.90;;;;;;5054872;28;20268;-89
2022/08/08 06:32:01;;;;;;;2.47;1.00;;;18.20;99.90;;;;;;5055803;28;20225;-89
2022/08/08 06:34:32;;;;;;;1.95;0.93;;;18.40;99.90;;;;;;5054712;28;20255;-89
2022/08/08 06:37:00;;;;;;;0.98;0.73;;;19.00;99.90;;;;;;5036489;28;20180;-89
2022/08/08 06:39:29;;;;;;;1.33;0.88;;;18.50;99.90;;;;;;5033473;28;20179;-88
2022/08/08 06:42:00;;;;;;;0.50;0.50;;;18.60;99.90;;;;;;5054530;28;20210;-88
2022/08/08 06:44:26;;;;;;;0.93;0.93;;;;;;;;;;5038584;28;20172;-88
2022/08/08 06:46:52;;;;;;;0.43;0.43;;;18.70;99.90;;;;;;5054108;28;20183;-89
2022/08/08 06:49:19;;;;;;;0.88;0.68;;;18.90;99.90;;;;;;5021756;28;20230;-89
2022/08/08 06:51:44;;;;;;;0.68;0.60;;;18.90;99.90;;;;;;5052023;28;20641;-88
2022/08/08 06:54:11;;;;;;;0.65;0.50;;;18.90;99.90;;;;;;5053675;28;20187;-88
2022/08/08 06:56:38;;;;;;;1.17;0.98;;;;;;;;;;5053314;28;20644;-89
2022/08/08 06:59:04;;;;;;;2.05;1.08;;;;;;;;;;5048130;28;20238;-89
2022/08/08 07:01:45;;;;;;;0.70;0.70;;;19.30;99.90;;;;;;5047922;28;20207;-88
2022/08/08 07:04:35;;;;;;;3.42;0.85;;;19.30;99.90;;;;;;5054434;28;20156;-91
2022/08/08 07:07:07;;;;;;;1.23;0.98;;;19.60;99.90;;;;;;5037362;28;20180;-88
2022/08/08 07:09:43;;;;;;;0.98;0.85;;;19.60;99.90;;;;;;5036764;28;20183;-88
2022/08/08 07:12:16;;;;;;;0.65;0.55;;;19.90;99.90;;;;;;5037114;28;20226;-89
2022/08/08 07:14:52;;;;;;;0.60;0.40;;;19.90;99.90;;;;;;5054636;28;20160;-89
2022/08/08 07:17:23;;;;;;;0.30;0.30;;;20.10;99.90;;;;;;5037009;28;20191;-88
2022/08/08 07:19:49;;;;;;;1.15;0.77;;;;;;;;;;5054432;28;20156;-88
2022/08/08 07:22:22;;;;;;;0.52;0.50;;;20.20;99.90;;;;;;5033178;28;20187;-88
2022/08/08 07:25:00;;;;;;;0.57;0.57;;;20.30;99.90;;;;;;5054110;28;20522;-87
2022/08/08 07:27:26;;;;;;;1.25;0.70;;;;;;;;;;5036055;28;20628;-88
2022/08/08 07:29:52;;;;;;;1.42;0.70;;;;;;;;;;5036401;28;20649;-89
2022/08/08 07:32:18;;;;;;;0.50;0.50;;;;;;;;;;5037050;28;20176;-89
2022/08/08 07:34:45;;;;;;;0.60;0.60;;;;;;;;;;5026314;28;20189;-89
2022/08/08 07:37:12;;;;;;;0.65;0.60;;;20.90;99.90;;;;;;5016923;28;20180;-89
2022/08/08 07:39:41;;;;;;;1.65;0.40;;;21.10;99.90;;;;;;5035236;28;20176;-89
2022/08/08 07:42:12;;;;;;;1.35;1.00;;;21.20;99.90;;;;;;5045601;28;20211;-89
2022/08/08 07:44:43;;;;;;;1.67;0.57;;;21.10;99.90;;;;;;5036768;28;20207;-88
2022/08/08 07:47:10;;;;;;;0.70;0.60;;;;;;;;;;5037202;28;20175;-88
2022/08/08 07:49:36;;;;;;;0.65;0.47;;;21.30;99.10;;;;;;5037196;28;20180;-88
2022/08/08 07:52:03;;;;;;;0.55;0.50;;;21.30;99.70;;;;;;5030953;28;20188;-88
2022/08/08 07:54:29;;;;;;;0.85;0.55;;;;;;;;;;5035801;28;20187;-88
2022/08/08 07:57:16;;;;;;;0.40;0.40;;;21.40;97.80;;;;;;5054533;28;20211;-89
2022/08/08 08:00:06;;;;;;;0.40;0.40;;;21.40;97.70;;;;;;5054595;28;20160;-89
2022/08/08 08:02:42;;;;;;;3.40;0.90;;;21.50;95.10;;;;;;5053535;28;20161;-90
2022/08/08 08:05:19;;;;;;;0.30;0.30;;;21.50;94.90;;;;;;5036370;28;20172;-89
2022/08/08 08:07:48;;;;;;;1.13;0.70;;;21.70;94.80;;;;;;5036362;28;20176;-90
2022/08/08 08:10:17;;;;;;;1.20;0.80;;;21.80;92.70;;;;;;5036344;28;20187;-90
2022/08/08 08:12:52;;;;;;;1.48;0.60;;;21.70;92.50;;;;;;5036159;28;20180;-91
2022/08/08 08:15:19;;;;;;;0.40;0.40;;;;;;;;;;5036358;28;20207;-90
2022/08/08 08:17:48;;;;;;;1.85;0.57;;;21.80;93.10;;;;;;5038044;28;20184;-89
2022/08/08 08:20:15;;;;;;;0.47;0.47;;;;;;;;;;5055504;28;20263;-89
2022/08/08 08:22:41;;;;;;;1.70;0.70;;;;;;;;;;5037439;28;20187;-89
2022/08/08 08:25:06;;;;;;;0.32;0.32;;;21.80;98.40;;;;;;5036452;28;20578;-91
2022/08/08 08:27:32;;;;;;;1.70;0.50;;;21.80;92.00;;;;;;5036036;28;20195;-90
2022/08/08 08:29:58;;;;;;;0.57;0.50;;;;;;;;;;5021806;28;20184;-89
2022/08/08 08:32:25;;;;;;;1.42;1.20;;;;;;;;;;5020306;28;20231;-89
2022/08/08 08:34:51;;;;;;;0.70;0.47;;;;;;;;;;5036304;28;20629;-90
2022/08/08 08:37:19;;;;;;;0.98;0.60;;;22.40;89.10;;;;;;5019654;28;20231;-90
2022/08/08 08:39:45;;;;;;;1.48;1.08;;;;;;;;;;5036287;28;20186;-91
2022/08/08 08:42:12;;;;;;;0.50;0.50;;;;;;;;;;5019978;28;20283;-89
2022/08/08 08:44:38;;;;;;;0.60;0.40;;;22.50;85.80;;;;;;5035825;28;20217;-91
2022/08/08 08:47:04;;;;;;;0.47;0.47;;;;;;;;;;5036236;28;20183;-91
2022/08/08 08:49:30;;;;;;;1.27;0.38;;;22.20;86.80;;;;;;5035799;28;20203;-91
2022/08/08 08:52:00;;;;;;;0.20;0.20;;;22.10;86.80;;;;;;5019308;28;20183;-91
2022/08/08 08:54:28;;;;;;;0.57;0.40;;;;;;;;;;5035927;28;20245;-89
2022/08/08 08:56:55;;;;;;;0.60;0.55;;;22.30;88.60;;;;;;5053564;28;20223;-89
2022/08/08 08:59:22;;;;;;;0.52;0.38;;;22.30;84.90;;;;;;5035643;28;20194;-89
2022/08/08 09:01:52;;;;;;;2.15;0.80;;;22.30;84.90;;;;;;5042744;28;20648;-89
2022/08/08 09:04:25;;;;;;;1.25;0.75;;;22.60;87.60;;;;;;5032702;28;20211;-90
2022/08/08 09:06:57;;;;;;;0.43;0.40;;;;;;;;;;5026133;28;20188;-90
2022/08/08 09:09:27;;;;;;;0.75;0.63;;;23.10;83.90;;;;;;5053715;28;20156;-90
2022/08/08 09:12:04;;;;;;;0.55;0.40;;;23.10;83.60;;;;;;5061486;28;20148;-90
2022/08/08 09:14:31;;;;;;;1.08;0.70;;;23.00;82.00;;;;;;5064097;28;20156;-90
2022/08/08 09:16:57;;;;;;;0.40;0.30;;;;;;;;;;5064521;28;20199;-90
2022/08/08 09:19:24;;;;;;;0.52;0.43;;;22.80;83.30;;;;;;5064513;28;20196;-90
2022/08/08 09:21:53;;;;;;;0.50;0.50;;;;;;;;;;5057112;28;20169;-90
2022/08/08 09:24:19;;;;;;;0.50;0.50;;;;;;;;;;5044641;28;20180;-89
2022/08/08 09:27:11;;;;;;;0.43;0.43;;;22.70;83.10;;;;;;5044313;28;20169;-94
2022/08/08 09:29:50;;;;;;;0.45;0.30;;;22.80;83.60;;;;;;5044353;28;20176;-90
2022/08/08 09:32:36;;;;;;;0.43;0.43;;;23.10;85.50;;;;;;5061519;28;20149;-89
2022/08/08 09:35:08;;;;;;;0.52;0.40;;;23.20;81.50;;;;;;5044237;28;20223;-88
2022/08/08 09:37:49;;;;;;;0.68;0.60;;;23.10;82.20;;;;;;5060795;28;20212;-94
2022/08/08 09:40:20;;;;;;;0.50;0.40;;;22.90;82.80;;;;;;5043925;28;20232;-89
2022/08/08 09:43:15;;;;;;;0.47;0.47;;;22.90;81.30;;;;;;5052842;28;20184;-91
2022/08/08 09:46:04;;;;;;;2.15;0.75;;;22.90;82.00;;;;;;5037973;28;20180;-91
2022/08/08 09:48:33;;;;;;;0.45;0.45;;;22.80;81.50;;;;;;5019898;28;20173;-92
2022/08/08 09:50:59;;;;;;;0.55;0.50;;;;;;;;;;5037385;28;20168;-89
2022/08/08 09:53:58;;;;;;;1.00;0.73;;;22.80;81.70;;;;;;5019475;28;20234;-89
2022/08/08 09:56:28;;;;;;;0.30;0.30;;;22.50;82.20;;;;;;5015218;28;20238;-89
2022/08/08 09:59:02;;;;;;;0.30;0.30;;;22.50;82.90;;;;;;5019361;28;20277;-91
2022/08/08 10:01:31;;;;;;;0.52;0.38;;;22.50;81.10;;;;;;5038716;28;20248;-89
2022/08/08 10:03:57;;;;;;;1.25;0.85;;;22.40;82.40;;;;;;5040935;28;20218;-89
2022/08/08 10:06:23;;;;;;;0.55;0.40;;;22.40;83.00;;;;;;5019497;28;20184;-88
2022/08/08 10:08:50;;;;;;;0.28;0.28;;;22.40;79.80;;;;;;5002258;28;20559;-90
2022/08/08 10:11:17;;;;;;;0.28;0.28;;;22.40;80.60;;;;;;5037163;28;20260;-93
2022/08/08 10:14:03;;;;;;;0.98;0.68;;;22.40;82.30;;;;;;5036905;28;20177;-92
2022/08/08 10:16:37;;;;;;;0.60;0.60;;;22.40;81.00;;;;;;5036799;28;20204;-94
2022/08/08 10:19:04;;;;;;;3.65;0.63;;;22.50;83.10;;;;;;5019055;28;20515;-92
2022/08/08 10:21:34;;;;;;;0.55;0.55;;;22.60;82.50;;;;;;5036927;28;20169;-93
2022/08/08 10:24:10;;;;;;;3.55;0.47;;;22.60;81.80;;;;;;5001858;28;20195;-90
2022/08/08 10:26:38;;;;;;;0.60;0.52;;;22.60;83.60;;;;;;5045047;28;20251;-90
2022/08/08 10:29:11;;;;;;;0.40;0.40;;;22.90;81.90;;;;;;5032078;28;20180;-90
2022/08/08 10:34:25;;;;;;;0.47;0.40;;;22.90;83.70;;;;;;5044256;28;20226;-89
2022/08/08 10:36:51;;;;;;;0.50;0.50;;;;;;;;;;5028978;28;20246;-90
2022/08/08 10:39:20;;;;;;;3.65;0.90;;;23.00;78.70;;;;;;5015443;28;20231;-91
2022/08/08 10:41:54;;;;;;;0.88;0.65;;;23.30;82.70;;;;;;5033201;28;20173;-90
2022/08/08 10:44:41;;;;;;;0.93;0.60;;;23.80;80.20;;;;;;5035392;28;20191;-90
2022/08/08 10:47:15;;;;;;;0.77;0.25;;;23.90;81.00;;;;;;5052568;28;20199;-90
2022/08/08 10:49:55;;;;;;;0.70;0.50;;;24.70;76.90;;;;;;5045366;28;20263;-91
2022/08/08 10:52:39;;;;;;;1.10;0.68;;;24.70;77.60;;;;;;5038239;28;20191;-89
2022/08/08 10:55:08;;;;;;;0.57;0.50;;;25.00;76.30;;;;;;5048838;28;20208;-89
2022/08/08 10:57:46;;;;;;;1.38;0.75;;;25.10;75.60;;;;;;5030897;28;20217;-91
2022/08/08 11:00:14;;;;;;;0.30;0.30;;;24.90;73.20;;;;;;5058267;28;20164;-92
2022/08/08 11:02:40;;;;;;;0.73;0.57;;;;;;;;;;5058954;28;20537;-90
2022/08/08 11:05:08;;;;;;;1.17;0.50;;;24.40;73.60;;;;;;5054878;28;20194;-90
2022/08/08 11:07:37;;;;;;;0.90;0.55;;;24.00;73.70;;;;;;5037173;28;20766;-89
2022/08/08 11:10:04;;;;;;;1.55;0.40;;;24.00;74.60;;;;;;5041556;28;20180;-90
2022/08/08 11:12:43;;;;;;;0.50;0.50;;;23.70;76.30;;;;;;5028414;28;20258;-89
2022/08/08 11:15:13;;;;;;;3.42;0.75;;;23.40;76.50;;;;;;5025713;28;20208;-90
2022/08/08 11:17:40;;;;;;;0.95;0.40;;;23.20;75.60;;;;;;5049137;28;20159;-90
2022/08/08 11:20:08;;;;;;;0.57;0.50;;;23.20;76.30;;;;;;5054611;28;20180;-90
2022/08/08 11:22:37;;;;;;;0.50;0.50;;;23.10;75.90;;;;;;5005223;28;20211;-88
2022/08/08 11:25:05;;;;;;;1.05;0.63;;;23.10;76.80;;;;;;5035922;28;20180;-89
2022/08/08 11:27:33;;;;;;;1.13;0.75;;;23.20;76.60;;;;;;5042501;28;20274;-89
2022/08/08 11:30:00;;;;;;;1.85;0.73;;;23.20;75.80;;;;;;5020712;28;20208;-88
2022/08/08 11:32:30;;;;;;;0.40;0.40;;;23.30;77.50;;;;;;5021597;28;20263;-89
2022/08/08 11:35:05;;;;;;;1.55;0.50;;;23.30;78.90;;;;;;5010353;28;20184;-90
2022/08/08 11:37:35;;;;;;;0.40;0.40;;;23.30;76.90;;;;;;5044676;28;20220;-90
2022/08/08 11:40:03;;;;;;;0.50;0.50;;;23.20;76.50;;;;;;5046306;28;20169;-91
2022/08/08 11:42:29;;;;;;;0.57;0.57;;;;;;;;;;5023626;28;20176;-89
2022/08/08 11:44:57;;;;;;;1.00;0.70;;;23.10;76.60;;;;;;5030145;28;20180;-90
2022/08/08 11:47:23;;;;;;;0.50;0.50;;;;;;;;;;5042875;28;20176;-90
2022/08/08 11:50:02;;;;;;;0.55;0.40;;;23.30;77.00;;;;;;5040422;28;20658;-90
2022/08/08 11:52:30;;;;;;;0.60;0.60;;;23.80;76.40;;;;;;5046030;28;20249;-90
2022/08/08 11:54:58;;;;;;;1.08;0.95;;;;;;;;;;5046396;28;20188;-90
2022/08/08 11:57:26;;;;;;;0.98;0.50;;;24.60;72.60;;;;;;5033934;28;20187;-91
2022/08/08 11:59:56;;;;;;;0.88;0.50;;;24.70;72.90;;;;;;5054244;28;20234;-90
2022/08/08 12:02:26;;;;;;;0.65;0.50;;;25.00;71.70;;;;;;5027406;28;20184;-88
2022/08/08 12:05:08;;;;;;;0.63;0.60;;;25.20;69.90;;;;;;5042698;28;20173;-89
2022/08/08 12:07:47;;;;;;;0.65;0.60;;;25.20;70.90;;;;;;5028094;28;20180;-89
2022/08/08 12:10:16;;;;;;;0.90;0.45;;;25.00;71.90;;;;;;5029976;28;20180;-90
2022/08/08 12:12:45;;;;;;;0.47;0.47;;;24.60;70.80;;;;;;5034822;28;20194;-89
2022/08/08 12:15:23;;;;;;;0.30;0.30;;;24.60;70.00;;;;;;5034799;28;20210;-90
2022/08/08 12:17:49;;;;;;;0.40;0.40;;;24.60;70.90;;;;;;5029816;28;20287;-88
2022/08/08 12:20:15;;;;;;;0.40;0.40;;;;;;;;;;5052633;28;20676;-88
2022/08/08 12:22:48;;;;;;;0.43;0.43;;;25.10;69.30;;;;;;5022510;28;20180;-89
2022/08/08 12:25:25;;;;;;;2.65;1.05;;;25.20;70.60;;;;;;5045734;28;20275;-90
2022/08/08 12:27:52;;;;;;;0.32;0.32;;;25.00;67.40;;;;;;5034340;28;20215;-89
2022/08/08 12:30:29;;;;;;;5.20;0.90;;;25.20;68.90;;;;;;5020269;28;20573;-89
2022/08/08 12:32:58;;;;;;;0.50;0.30;;;;;;;;;;5036183;28;20198;-87
2022/08/08 12:35:26;;;;;;;1.50;0.90;;;;;;;;;;5036293;28;20294;-88
2022/08/08 12:38:07;;;;;;;1.15;0.90;;;25.30;66.40;;;;;;5053721;28;20238;-89
2022/08/08 12:40:46;;;;;;;1.35;0.73;;;25.50;64.00;;;;;;5054174;28;20633;-88
2022/08/08 12:43:14;;;;;;;0.50;0.50;;;25.30;65.80;;;;;;5053816;28;20174;-89
2022/08/08 12:45:43;;;;;;;0.75;0.75;;;25.10;66.90;;;;;;5036422;28;20179;-89
2022/08/08 12:48:53;;;;;;;0.88;0.70;;;25.00;69.20;;;;;;5053424;28;20172;-89
2022/08/08 12:51:19;;;;;;;1.40;0.75;;;;;;;;;;5036502;28;20229;-89
2022/08/08 12:54:00;;;;;;;0.40;0.40;;;24.60;67.90;;;;;;5054057;28;20180;-89
2022/08/08 12:56:35;;;;;;;2.45;0.77;;;24.70;69.40;;;;;;5036274;28;20204;-89
2022/08/08 12:59:11;;;;;;;1.55;1.13;;;24.80;67.10;;;;;;5052948;28;20186;-89
2022/08/08 13:01:37;;;;;;;0.52;0.50;;;;;;;;;;5036130;28;20270;-89
2022/08/08 13:04:14;;;;;;;1.10;0.60;;;24.90;67.40;;;;;;5035578;28;20230;-92
2022/08/08 13:07:01;;;;;;;1.25;0.63;;;24.90;65.20;;;;;;5035744;28;20190;-88
2022/08/08 13:09:39;;;;;;;0.60;0.57;;;24.80;65.90;;;;;;5019510;28;20282;-88
2022/08/08 13:12:11;;;;;;;1.02;0.70;;;24.70;67.90;;;;;;5053684;28;20164;-89
2022/08/08 13:14:42;;;;;;;0.60;0.60;;;24.40;66.90;;;;;;5035684;28;20321;-89
2022/08/08 13:17:08;;;;;;;2.85;1.45;;;;;;;;;;5035695;28;20296;-89
2022/08/08 13:19:35;;;;;;;0.57;0.57;;;24.30;66.70;;;;;;5035922;28;20183;-91
2022/08/08 13:22:01;;;;;;;0.50;0.50;;;24.20;67.70;;;;;;5029210;28;20767;-92
2022/08/08 13:24:28;;;;;;;0.50;0.50;;;24.30;66.70;;;;;;5016613;28;20191;-90
2022/08/08 13:27:02;;;;;;;0.63;0.50;;;24.20;67.20;;;;;;5033869;28;20192;-90
2022/08/08 13:29:28;;;;;;;0.50;0.50;;;;;;;;;;5053871;28;20187;-90
2022/08/08 13:31:54;;;;;;;1.40;0.68;;;24.40;66.60;;;;;;5035656;28;20172;-90
2022/08/08 13:34:23;;;;;;;3.05;0.75;;;24.80;67.10;;;;;;5019208;28;20191;-90
2022/08/08 13:36:50;;;;;;;1.52;0.73;;;24.90;64.10;;;;;;5053386;28;20257;-90
2022/08/08 13:39:16;;;;;;;0.50;0.40;;;24.80;64.30;;;;;;5045263;28;20228;-90
2022/08/08 13:41:43;;;;;;;1.23;0.68;;;24.90;63.20;;;;;;5050045;28;20208;-92
2022/08/08 13:44:10;;;;;;;1.02;0.73;;;25.00;62.70;;;;;;5036601;28;20180;-91
2022/08/08 13:46:35;;;;;;;0.55;0.47;;;24.90;63.30;;;;;;5041957;28;20652;-91
2022/08/08 13:49:02;;;;;;;0.85;0.70;;;25.10;66.50;;;;;;5042288;28;20189;-90